Time,TemperatureF,DewpointF,PressureIn,WindDirection,WindDirectionDegrees,WindSpeedMPH,WindSpeedGustMPH,Humidity,HourlyPrecipIn,Conditions,Clouds,dailyrainin,SoftwareType,DateUTC
2013-08-01 00:00:00,61.3,59.6,29.87,NW,306,3.0,3.0,94,0.00,,,0.00,Wunderground v.1.15,2013-08-01 05:00:00,
2013-08-01 00:01:00,61.2,59.5,29.87,NW,306,3.0,3.0,94,0.00,,,0.00,Wunderground v.1.15,2013-08-01 05:01:00,
2013-08-01 00:05:00,61.2,59.5,29.87,NW,305,3.0,3.0,94,0.00,,,0.00,Wunderground v.1.15,2013-08-01 05:05:00,
2013-08-01 00:06:00,61.2,59.5,29.87,NW,305,5.0,5.0,94,0.00,,,0.00,Wunderground v.1.15,2013-08-01 05:06:00,
2013-08-01 00:11:00,61.2,59.5,29.87,NW,304,4.0,4.0,94,0.00,,,0.00,Wunderground v.1.15,2013-08-01 05:11:00,
2013-08-01 00:12:00,61.2,59.5,29.87,NW,304,4.0,4.0,94,0.00,,,0.00,Wunderground v.1.15,2013-08-01 05:12:00,
2013-08-01 00:15:00,61.0,59.3,29.87,NW,304,3.0,4.0,94,0.00,,,0.00,Wunderground v.1.15,2013-08-01 05:15:00,
2013-08-01 00:19:00,60.9,59.2,29.87,WNW,300,4.0,4.0,94,0.00,,,0.00,Wunderground v.1.15,2013-08-01 05:19:00,
2013-08-01 00:20:00,60.9,59.2,29.87,WNW,300,3.0,4.0,94,0.00,,,0.00,Wunderground v.1.15,2013-08-01 05:20:00,
2013-08-01 00:24:00,60.9,59.2,29.87,WNW,300,4.0,4.0,94,0.00,,,0.00,Wunderground v.1.15,2013-08-01 05:24:00,
2013-08-01 00:26:00,60.9,59.2,29.87,WNW,300,4.0,4.0,94,0.00,,,0.00,Wunderground v.1.15,2013-08-01 05:26:00,
2013-08-01 00:30:00,60.9,59.2,29.87,WNW,297,6.0,6.0,94,0.00,,,0.00,Wunderground v.1.15,2013-08-01 05:30:00,
2013-08-01 00:35:00,61.0,59.3,29.87,WNW,290,5.0,6.0,94,0.00,,,0.00,Wunderground v.1.15,2013-08-01 05:35:00,
2013-08-01 00:37:00,61.0,59.3,29.87,West,279,4.0,6.0,94,0.00,,,0.00,Wunderground v.1.15,2013-08-01 05:37:00,
2013-08-01 00:40:00,61.0,59.3,29.87,West,265,4.0,5.0,94,0.00,,,0.00,Wunderground v.1.15,2013-08-01 05:40:00,
2013-08-01 00:41:00,61.0,59.3,29.87,WSW,258,4.0,5.0,94,0.00,,,0.00,Wunderground v.1.15,2013-08-01 05:41:00,
2013-08-01 00:45:00,61.0,59.0,29.86,WSW,248,4.0,5.0,93,0.00,,,0.00,Wunderground v.1.15,2013-08-01 05:45:00,
2013-08-01 00:47:00,61.0,59.0,29.86,WSW,246,4.0,5.0,93,0.00,,,0.00,Wunderground v.1.15,2013-08-01 05:47:00,
2013-08-01 00:50:00,60.9,58.9,29.86,WSW,245,5.0,6.0,93,0.00,,,0.00,Wunderground v.1.15,2013-08-01 05:50:00,
2013-08-01 00:52:00,60.9,58.9,29.86,WSW,245,6.0,6.0,93,0.00,,,0.00,Wunderground v.1.15,2013-08-01 05:52:00,
2013-08-01 00:55:00,60.7,58.7,29.86,WSW,244,4.0,6.0,93,0.00,,,0.00,Wunderground v.1.15,2013-08-01 05:55:00,
2013-08-01 00:56:00,60.7,59.0,29.86,WSW,244,5.0,6.0,94,0.00,,,0.00,Wunderground v.1.15,2013-08-01 05:56:00,
2013-08-01 01:00:00,60.7,59.0,29.86,WSW,246,4.0,5.0,94,0.00,,,0.00,Wunderground v.1.15,2013-08-01 06:00:00,
2013-08-01 01:02:00,60.5,58.8,29.86,WSW,245,4.0,5.0,94,0.00,,,0.00,Wunderground v.1.15,2013-08-01 06:02:00,
2013-08-01 01:06:00,60.5,58.8,29.86,WSW,246,3.0,5.0,94,0.00,,,0.00,Wunderground v.1.15,2013-08-01 06:06:00,
2013-08-01 01:07:00,60.5,58.8,29.86,WSW,245,5.0,5.0,94,0.00,,,0.00,Wunderground v.1.15,2013-08-01 06:07:00,
2013-08-01 01:14:00,60.5,58.8,29.86,WSW,246,3.0,6.0,94,0.00,,,0.00,Wunderground v.1.15,2013-08-01 06:14:00,
2013-08-01 01:16:00,60.5,59.1,29.86,WSW,246,4.0,6.0,95,0.00,,,0.00,Wunderground v.1.15,2013-08-01 06:16:00,
2013-08-01 01:19:00,60.5,59.1,29.86,WSW,247,3.0,4.0,95,0.00,,,0.00,Wunderground v.1.15,2013-08-01 06:19:00,
2013-08-01 01:25:00,60.5,59.1,29.86,WSW,247,3.0,5.0,95,0.00,,,0.00,Wunderground v.1.15,2013-08-01 06:25:00,
2013-08-01 01:27:00,60.5,59.1,29.85,WSW,246,5.0,5.0,95,0.00,,,0.00,Wunderground v.1.15,2013-08-01 06:27:00,
2013-08-01 01:29:00,60.5,59.1,29.85,WSW,247,5.0,5.0,95,0.00,,,0.00,Wunderground v.1.15,2013-08-01 06:29:00,
2013-08-01 01:31:00,60.5,59.1,29.85,WSW,248,6.0,6.0,95,0.00,,,0.00,Wunderground v.1.15,2013-08-01 06:31:00,
2013-08-01 01:32:00,60.5,59.1,29.85,WSW,248,4.0,6.0,95,0.00,,,0.00,Wunderground v.1.15,2013-08-01 06:32:00,
2013-08-01 01:35:00,60.5,59.1,29.85,WSW,250,5.0,6.0,95,0.00,,,0.00,Wunderground v.1.15,2013-08-01 06:35:00,
2013-08-01 01:36:00,60.5,59.1,29.85,WSW,250,5.0,6.0,95,0.00,,,0.00,Wunderground v.1.15,2013-08-01 06:36:00,
2013-08-01 01:39:00,60.5,59.1,29.85,WSW,251,3.0,4.0,95,0.00,,,0.00,Wunderground v.1.15,2013-08-01 06:39:00,
2013-08-01 01:42:00,60.5,59.1,29.85,WSW,252,5.0,5.0,95,0.00,,,0.00,Wunderground v.1.15,2013-08-01 06:42:00,
2013-08-01 01:44:00,60.5,59.1,29.85,WSW,252,3.0,5.0,95,0.00,,,0.00,Wunderground v.1.15,2013-08-01 06:44:00,
2013-08-01 01:46:00,60.5,59.1,29.85,WSW,252,3.0,5.0,95,0.00,,,0.00,Wunderground v.1.15,2013-08-01 06:46:00,
2013-08-01 01:47:00,60.5,59.1,29.85,WSW,252,4.0,5.0,95,0.00,,,0.00,Wunderground v.1.15,2013-08-01 06:47:00,
2013-08-01 01:51:00,60.5,59.1,29.85,WSW,252,4.0,4.0,95,0.00,,,0.00,Wunderground v.1.15,2013-08-01 06:51:00,
2013-08-01 01:52:00,60.5,59.1,29.85,WSW,252,5.0,5.0,95,0.00,,,0.00,Wunderground v.1.15,2013-08-01 06:52:00,
2013-08-01 01:57:00,60.5,59.1,29.84,WSW,251,4.0,5.0,95,0.00,,,0.00,Wunderground v.1.15,2013-08-01 06:57:00,
2013-08-01 02:00:00,60.4,59.0,29.84,WSW,251,4.0,5.0,95,0.00,,,0.00,Wunderground v.1.15,2013-08-01 07:00:00,
2013-08-01 02:02:00,60.4,59.0,29.84,WSW,250,5.0,6.0,95,0.00,,,0.00,Wunderground v.1.15,2013-08-01 07:02:00,
2013-08-01 02:05:00,60.5,59.4,29.84,WSW,250,4.0,6.0,96,0.00,,,0.00,Wunderground v.1.15,2013-08-01 07:05:00,
2013-08-01 02:07:00,60.5,59.4,29.84,WSW,250,4.0,6.0,96,0.00,,,0.00,Wunderground v.1.15,2013-08-01 07:07:00,
2013-08-01 02:09:00,60.5,59.1,29.84,WSW,250,5.0,6.0,95,0.00,,,0.00,Wunderground v.1.15,2013-08-01 07:09:00,
2013-08-01 02:10:00,60.5,59.1,29.84,WSW,249,5.0,5.0,95,0.00,,,0.00,Wunderground v.1.15,2013-08-01 07:10:00,
2013-08-01 02:12:00,60.5,59.1,29.84,WSW,249,4.0,5.0,95,0.00,,,0.00,Wunderground v.1.15,2013-08-01 07:12:00,
2013-08-01 02:15:00,60.5,59.1,29.84,WSW,248,6.0,6.0,95,0.00,,,0.00,Wunderground v.1.15,2013-08-01 07:15:00,
2013-08-01 02:16:00,60.5,59.1,29.84,WSW,248,4.0,6.0,95,0.00,,,0.00,Wunderground v.1.15,2013-08-01 07:16:00,
2013-08-01 02:17:00,60.5,59.1,29.84,WSW,248,3.0,6.0,95,0.00,,,0.00,Wunderground v.1.15,2013-08-01 07:17:00,
2013-08-01 02:20:00,60.5,59.1,29.84,WSW,248,4.0,4.0,95,0.00,,,0.00,Wunderground v.1.15,2013-08-01 07:20:00,
2013-08-01 02:21:00,60.5,59.1,29.84,WSW,247,6.0,6.0,95,0.00,,,0.00,Wunderground v.1.15,2013-08-01 07:21:00,
2013-08-01 02:25:00,60.5,59.4,29.84,WSW,245,5.0,6.0,96,0.00,,,0.00,Wunderground v.1.15,2013-08-01 07:25:00,
2013-08-01 02:26:00,60.5,59.4,29.84,WSW,246,4.0,6.0,96,0.00,,,0.00,Wunderground v.1.15,2013-08-01 07:26:00,
2013-08-01 02:27:00,60.5,59.4,29.84,WSW,246,4.0,6.0,96,0.00,,,0.00,Wunderground v.1.15,2013-08-01 07:27:00,
2013-08-01 02:29:00,60.5,59.4,29.84,WSW,246,4.0,6.0,96,0.00,,,0.00,Wunderground v.1.15,2013-08-01 07:29:00,
2013-08-01 02:31:00,60.5,59.4,29.84,WSW,246,5.0,5.0,96,0.00,,,0.00,Wunderground v.1.15,2013-08-01 07:31:00,
2013-08-01 02:32:00,60.5,59.4,29.84,WSW,246,5.0,6.0,96,0.00,,,0.00,Wunderground v.1.15,2013-08-01 07:32:00,
2013-08-01 02:35:00,60.4,59.3,29.84,WSW,244,5.0,6.0,96,0.00,,,0.00,Wunderground v.1.15,2013-08-01 07:35:00,
2013-08-01 02:37:00,60.4,59.3,29.84,WSW,244,5.0,6.0,96,0.00,,,0.00,Wunderground v.1.15,2013-08-01 07:37:00,
2013-08-01 02:40:00,60.2,59.1,29.84,WSW,243,5.0,5.0,96,0.00,,,0.00,Wunderground v.1.15,2013-08-01 07:40:00,
2013-08-01 02:42:00,60.4,59.3,29.84,WSW,243,3.0,5.0,96,0.00,,,0.00,Wunderground v.1.15,2013-08-01 07:42:00,
2013-08-01 02:43:00,60.4,59.3,29.84,WSW,243,4.0,5.0,96,0.00,,,0.00,Wunderground v.1.15,2013-08-01 07:43:00,
2013-08-01 02:45:00,60.4,59.3,29.84,WSW,243,4.0,5.0,96,0.00,,,0.00,Wunderground v.1.15,2013-08-01 07:45:00,
2013-08-01 02:46:00,60.4,59.3,29.84,WSW,243,5.0,5.0,96,0.00,,,0.00,Wunderground v.1.15,2013-08-01 07:46:00,
2013-08-01 02:47:00,60.4,59.3,29.84,WSW,243,4.0,5.0,96,0.00,,,0.00,Wunderground v.1.15,2013-08-01 07:47:00,
2013-08-01 02:50:00,60.4,59.3,29.84,WSW,243,4.0,4.0,96,0.00,,,0.00,Wunderground v.1.15,2013-08-01 07:50:00,
2013-08-01 02:52:00,60.4,59.3,29.84,WSW,243,4.0,5.0,96,0.00,,,0.00,Wunderground v.1.15,2013-08-01 07:52:00,
2013-08-01 02:55:00,60.2,59.1,29.84,WSW,243,3.0,5.0,96,0.00,,,0.00,Wunderground v.1.15,2013-08-01 07:55:00,
2013-08-01 02:57:00,60.2,59.1,29.84,WSW,243,2.0,5.0,96,0.00,,,0.00,Wunderground v.1.15,2013-08-01 07:57:00,
2013-08-01 02:58:00,60.2,59.1,29.84,WSW,243,3.0,5.0,96,0.00,,,0.00,Wunderground v.1.15,2013-08-01 07:58:00,
2013-08-01 03:00:00,60.2,59.1,29.84,WSW,243,3.0,3.0,96,0.00,,,0.00,Wunderground v.1.15,2013-08-01 08:00:00,
2013-08-01 03:02:00,60.2,59.1,29.84,WSW,243,4.0,4.0,96,0.00,,,0.00,Wunderground v.1.15,2013-08-01 08:02:00,
2013-08-01 03:06:00,60.2,59.1,29.84,WSW,243,3.0,4.0,96,0.00,,,0.00,Wunderground v.1.15,2013-08-01 08:06:00,
2013-08-01 03:08:00,60.2,59.1,29.84,WSW,243,3.0,4.0,96,0.00,,,0.00,Wunderground v.1.15,2013-08-01 08:08:00,
2013-08-01 03:11:00,60.1,59.0,29.84,WSW,243,3.0,4.0,96,0.00,,,0.00,Wunderground v.1.15,2013-08-01 08:11:00,
2013-08-01 03:15:00,59.9,58.8,29.84,WSW,243,4.0,4.0,96,0.00,,,0.00,Wunderground v.1.15,2013-08-01 08:15:00,
2013-08-01 03:17:00,59.9,59.0,29.84,WSW,243,3.0,4.0,97,0.00,,,0.00,Wunderground v.1.15,2013-08-01 08:17:00,
2013-08-01 03:22:00,59.8,58.9,29.84,WSW,243,2.0,4.0,97,0.00,,,0.00,Wunderground v.1.15,2013-08-01 08:22:00,
2013-08-01 03:27:00,59.8,58.9,29.84,WSW,243,3.0,4.0,97,0.00,,,0.00,Wunderground v.1.15,2013-08-01 08:27:00,
2013-08-01 03:31:00,59.8,58.9,29.84,WSW,243,3.0,4.0,97,0.00,,,0.00,Wunderground v.1.15,2013-08-01 08:31:00,
2013-08-01 03:32:00,59.8,58.9,29.84,WSW,243,3.0,4.0,97,0.00,,,0.00,Wunderground v.1.15,2013-08-01 08:32:00,
2013-08-01 03:34:00,59.6,58.7,29.84,WSW,243,3.0,4.0,97,0.00,,,0.00,Wunderground v.1.15,2013-08-01 08:34:00,
2013-08-01 03:35:00,59.6,58.7,29.84,WSW,243,2.0,4.0,97,0.00,,,0.00,Wunderground v.1.15,2013-08-01 08:35:00,
2013-08-01 03:37:00,59.6,58.7,29.84,WSW,243,3.0,4.0,97,0.00,,,0.00,Wunderground v.1.15,2013-08-01 08:37:00,
2013-08-01 03:39:00,59.6,58.7,29.84,WSW,243,2.0,4.0,97,0.00,,,0.00,Wunderground v.1.15,2013-08-01 08:39:00,
2013-08-01 03:40:00,59.6,58.7,29.84,WSW,243,3.0,3.0,97,0.00,,,0.00,Wunderground v.1.15,2013-08-01 08:40:00,
2013-08-01 03:41:00,59.6,58.7,29.84,WSW,243,3.0,3.0,97,0.00,,,0.00,Wunderground v.1.15,2013-08-01 08:41:00,
2013-08-01 03:45:00,59.6,59.0,29.84,WSW,243,3.0,4.0,98,0.00,,,0.00,Wunderground v.1.15,2013-08-01 08:45:00,
2013-08-01 03:46:00,59.6,59.0,29.84,WSW,243,3.0,4.0,98,0.00,,,0.00,Wunderground v.1.15,2013-08-01 08:46:00,
2013-08-01 03:51:00,59.8,59.2,29.84,WSW,243,3.0,4.0,98,0.00,,,0.00,Wunderground v.1.15,2013-08-01 08:51:00,
2013-08-01 03:52:00,59.8,59.2,29.84,WSW,243,3.0,4.0,98,0.00,,,0.00,Wunderground v.1.15,2013-08-01 08:52:00,
2013-08-01 03:59:00,59.9,59.3,29.84,WSW,243,2.0,4.0,98,0.00,,,0.00,Wunderground v.1.15,2013-08-01 08:59:00,
2013-08-01 04:02:00,59.9,59.3,29.84,WSW,243,3.0,4.0,98,0.00,,,0.00,Wunderground v.1.15,2013-08-01 09:02:00,
2013-08-01 04:05:00,59.9,59.3,29.84,WSW,243,4.0,4.0,98,0.00,,,0.00,Wunderground v.1.15,2013-08-01 09:05:00,
2013-08-01 04:06:00,59.9,59.3,29.84,WSW,243,3.0,4.0,98,0.00,,,0.00,Wunderground v.1.15,2013-08-01 09:06:00,
2013-08-01 04:07:00,59.9,59.3,29.84,WSW,243,3.0,4.0,98,0.00,,,0.00,Wunderground v.1.15,2013-08-01 09:07:00,
2013-08-01 04:12:00,59.9,59.3,29.84,WSW,243,2.0,4.0,98,0.00,,,0.01,Wunderground v.1.15,2013-08-01 09:12:00,
2013-08-01 04:13:00,59.8,59.2,29.84,WSW,243,3.0,4.0,98,0.00,,,0.01,Wunderground v.1.15,2013-08-01 09:13:00,
2013-08-01 04:18:00,59.6,59.0,29.84,WSW,243,2.0,4.0,98,0.00,,,0.01,Wunderground v.1.15,2013-08-01 09:18:00,
2013-08-01 04:20:00,59.5,58.9,29.84,WSW,243,3.0,3.0,98,0.00,,,0.01,Wunderground v.1.15,2013-08-01 09:20:00,
2013-08-01 04:23:00,59.5,58.9,29.84,WSW,243,3.0,3.0,98,0.00,,,0.01,Wunderground v.1.15,2013-08-01 09:23:00,
2013-08-01 04:28:00,59.3,58.7,29.84,WSW,243,3.0,3.0,98,0.00,,,0.01,Wunderground v.1.15,2013-08-01 09:28:00,
2013-08-01 04:31:00,59.3,59.0,29.84,WSW,243,2.0,3.0,99,0.00,,,0.01,Wunderground v.1.15,2013-08-01 09:31:00,
2013-08-01 04:32:00,59.3,59.0,29.84,WSW,243,3.0,3.0,99,0.00,,,0.01,Wunderground v.1.15,2013-08-01 09:32:00,
2013-08-01 04:34:00,59.3,59.0,29.84,WSW,243,3.0,4.0,99,0.00,,,0.01,Wunderground v.1.15,2013-08-01 09:34:00,
2013-08-01 04:37:00,59.3,59.0,29.84,West,262,2.0,5.0,99,0.00,,,0.01,Wunderground v.1.15,2013-08-01 09:37:00,
2013-08-01 04:41:00,59.6,59.3,29.84,WNW,295,6.0,6.0,99,0.00,,,0.01,Wunderground v.1.15,2013-08-01 09:41:00,
2013-08-01 04:43:00,59.8,59.5,29.84,WNW,295,4.0,6.0,99,0.00,,,0.01,Wunderground v.1.15,2013-08-01 09:43:00,
2013-08-01 04:44:00,59.8,59.5,29.84,WNW,291,6.0,6.0,99,0.00,,,0.01,Wunderground v.1.15,2013-08-01 09:44:00,
2013-08-01 04:47:00,59.8,59.5,29.84,WNW,295,3.0,6.0,99,0.00,,,0.01,Wunderground v.1.15,2013-08-01 09:47:00,
2013-08-01 04:48:00,59.8,59.5,29.84,WNW,295,5.0,6.0,99,0.00,,,0.01,Wunderground v.1.15,2013-08-01 09:48:00,
2013-08-01 04:53:00,59.8,59.5,29.84,WNW,296,4.0,5.0,99,0.00,,,0.01,Wunderground v.1.15,2013-08-01 09:53:00,
2013-08-01 04:55:00,59.6,59.3,29.84,WNW,296,4.0,5.0,99,0.00,,,0.01,Wunderground v.1.15,2013-08-01 09:55:00,
2013-08-01 04:58:00,59.6,59.3,29.84,WNW,295,5.0,5.0,99,0.00,,,0.01,Wunderground v.1.15,2013-08-01 09:58:00,
2013-08-01 05:01:00,59.5,59.2,29.84,WNW,295,3.0,5.0,99,0.00,,,0.01,Wunderground v.1.15,2013-08-01 10:01:00,
2013-08-01 05:05:00,59.3,59.0,29.84,WNW,295,3.0,5.0,99,0.00,,,0.01,Wunderground v.1.15,2013-08-01 10:05:00,
2013-08-01 05:07:00,59.3,59.0,29.84,WNW,295,4.0,5.0,99,0.00,,,0.01,Wunderground v.1.15,2013-08-01 10:07:00,
2013-08-01 05:11:00,59.2,58.9,29.84,WNW,295,4.0,5.0,99,0.00,,,0.01,Wunderground v.1.15,2013-08-01 10:11:00,
2013-08-01 05:12:00,59.2,58.9,29.84,WNW,295,3.0,5.0,99,0.00,,,0.01,Wunderground v.1.15,2013-08-01 10:12:00,
2013-08-01 05:16:00,59.3,59.0,29.84,WNW,295,4.0,5.0,99,0.00,,,0.01,Wunderground v.1.15,2013-08-01 10:16:00,
2013-08-01 05:17:00,59.3,59.0,29.84,WNW,295,3.0,5.0,99,0.00,,,0.01,Wunderground v.1.15,2013-08-01 10:17:00,
2013-08-01 05:18:00,59.3,59.0,29.84,WNW,295,3.0,5.0,99,0.00,,,0.01,Wunderground v.1.15,2013-08-01 10:18:00,
2013-08-01 05:22:00,59.2,58.9,29.84,WNW,295,3.0,4.0,99,0.00,,,0.01,Wunderground v.1.15,2013-08-01 10:22:00,
2013-08-01 05:25:00,59.3,59.0,29.84,WNW,295,5.0,5.0,99,0.00,,,0.01,Wunderground v.1.15,2013-08-01 10:25:00,
2013-08-01 05:27:00,59.3,59.0,29.85,WNW,295,3.0,5.0,99,0.00,,,0.01,Wunderground v.1.15,2013-08-01 10:27:00,
2013-08-01 05:30:00,59.3,59.0,29.85,WNW,295,3.0,3.0,99,0.00,,,0.01,Wunderground v.1.15,2013-08-01 10:30:00,
2013-08-01 05:33:00,59.3,59.0,29.85,WNW,295,3.0,5.0,99,0.00,,,0.01,Wunderground v.1.15,2013-08-01 10:33:00,
2013-08-01 05:34:00,59.3,59.0,29.85,WNW,295,5.0,5.0,99,0.00,,,0.01,Wunderground v.1.15,2013-08-01 10:34:00,
2013-08-01 05:37:00,59.3,59.0,29.85,WNW,295,4.0,5.0,99,0.00,,,0.01,Wunderground v.1.15,2013-08-01 10:37:00,
2013-08-01 05:40:00,59.3,59.0,29.85,WNW,295,4.0,4.0,99,0.00,,,0.01,Wunderground v.1.15,2013-08-01 10:40:00,
2013-08-01 05:42:00,59.3,59.0,29.85,WNW,295,4.0,5.0,99,0.00,,,0.01,Wunderground v.1.15,2013-08-01 10:42:00,
2013-08-01 05:46:00,59.3,59.0,29.85,WNW,295,3.0,5.0,99,0.00,,,0.01,Wunderground v.1.15,2013-08-01 10:46:00,
2013-08-01 05:47:00,59.3,59.0,29.85,WNW,295,3.0,5.0,99,0.00,,,0.01,Wunderground v.1.15,2013-08-01 10:47:00,
2013-08-01 05:50:00,59.3,59.0,29.85,WNW,295,3.0,4.0,99,0.00,,,0.01,Wunderground v.1.15,2013-08-01 10:50:00,
2013-08-01 05:52:00,59.2,58.9,29.85,WNW,295,3.0,4.0,99,0.00,,,0.01,Wunderground v.1.15,2013-08-01 10:52:00,
2013-08-01 05:53:00,59.2,58.9,29.85,WNW,295,4.0,4.0,99,0.00,,,0.01,Wunderground v.1.15,2013-08-01 10:53:00,
2013-08-01 05:57:00,59.3,59.0,29.85,WNW,295,3.0,4.0,99,0.00,,,0.01,Wunderground v.1.15,2013-08-01 10:57:00,
2013-08-01 06:00:00,59.5,59.5,29.85,WNW,295,2.0,4.0,100,0.00,,,0.01,Wunderground v.1.15,2013-08-01 11:00:00,
2013-08-01 06:01:00,59.5,59.5,29.85,WNW,295,2.0,4.0,100,0.00,,,0.01,Wunderground v.1.15,2013-08-01 11:01:00,
2013-08-01 06:02:00,59.5,59.5,29.85,WNW,295,2.0,4.0,100,0.00,,,0.01,Wunderground v.1.15,2013-08-01 11:02:00,
2013-08-01 06:07:00,59.6,59.6,29.85,WNW,295,3.0,4.0,100,0.00,,,0.01,Wunderground v.1.15,2013-08-01 11:07:00,
2013-08-01 06:08:00,59.6,59.6,29.85,WNW,295,4.0,4.0,100,0.00,,,0.01,Wunderground v.1.15,2013-08-01 11:08:00,
2013-08-01 06:12:00,59.6,59.6,29.85,WNW,295,3.0,3.0,100,0.00,,,0.01,Wunderground v.1.15,2013-08-01 11:12:00,
2013-08-01 06:15:00,59.5,59.5,29.85,WNW,295,3.0,4.0,100,0.00,,,0.01,Wunderground v.1.15,2013-08-01 11:15:00,
2013-08-01 06:20:00,59.5,59.5,29.85,WNW,295,3.0,3.0,100,0.00,,,0.01,Wunderground v.1.15,2013-08-01 11:20:00,
2013-08-01 06:21:00,59.5,59.5,29.85,WNW,295,3.0,3.0,100,0.00,,,0.01,Wunderground v.1.15,2013-08-01 11:21:00,
2013-08-01 06:26:00,59.3,59.3,29.85,WNW,295,2.0,3.0,100,0.00,,,0.01,Wunderground v.1.15,2013-08-01 11:26:00,
2013-08-01 06:31:00,59.5,59.5,29.86,WNW,295,1.0,2.0,100,0.00,,,0.01,Wunderground v.1.15,2013-08-01 11:31:00,
2013-08-01 06:32:00,59.5,59.5,29.86,WNW,295,0.0,2.0,100,0.00,,,0.01,Wunderground v.1.15,2013-08-01 11:32:00,
2013-08-01 06:34:00,59.5,59.5,29.86,WNW,295,1.0,2.0,100,0.00,,,0.01,Wunderground v.1.15,2013-08-01 11:34:00,
2013-08-01 06:37:00,59.5,59.5,29.86,WNW,295,2.0,2.0,100,0.00,,,0.01,Wunderground v.1.15,2013-08-01 11:37:00,
2013-08-01 06:38:00,59.5,59.5,29.86,WNW,295,1.0,2.0,100,0.00,,,0.01,Wunderground v.1.15,2013-08-01 11:38:00,
2013-08-01 06:45:00,59.6,59.6,29.86,WNW,295,3.0,3.0,100,0.00,,,0.01,Wunderground v.1.15,2013-08-01 11:45:00,
2013-08-01 06:46:00,59.6,59.6,29.86,WNW,295,2.0,4.0,100,0.00,,,0.01,Wunderground v.1.15,2013-08-01 11:46:00,
2013-08-01 06:51:00,59.8,59.8,29.86,WNW,295,2.0,2.0,100,0.00,,,0.01,Wunderground v.1.15,2013-08-01 11:51:00,
2013-08-01 06:55:00,59.8,59.8,29.86,WNW,295,2.0,2.0,100,0.00,,,0.01,Wunderground v.1.15,2013-08-01 11:55:00,
2013-08-01 06:57:00,59.8,59.8,29.86,WNW,295,3.0,4.0,100,0.00,,,0.01,Wunderground v.1.15,2013-08-01 11:57:00,
2013-08-01 07:01:00,59.9,59.9,29.86,WNW,295,4.0,4.0,100,0.00,,,0.01,Wunderground v.1.15,2013-08-01 12:01:00,
2013-08-01 07:07:00,59.9,59.9,29.86,WNW,295,3.0,5.0,100,0.00,,,0.01,Wunderground v.1.15,2013-08-01 12:07:00,
2013-08-01 07:08:00,59.9,59.9,29.86,WNW,295,4.0,5.0,100,0.00,,,0.01,Wunderground v.1.15,2013-08-01 12:08:00,
2013-08-01 07:12:00,59.9,59.9,29.86,WNW,295,3.0,4.0,100,0.00,,,0.01,Wunderground v.1.15,2013-08-01 12:12:00,
2013-08-01 07:15:00,60.1,60.1,29.86,WNW,295,4.0,4.0,100,0.00,,,0.01,Wunderground v.1.15,2013-08-01 12:15:00,
2013-08-01 07:17:00,60.2,60.2,29.86,WNW,295,2.0,4.0,100,0.00,,,0.01,Wunderground v.1.15,2013-08-01 12:17:00,
2013-08-01 07:18:00,60.2,60.2,29.86,WNW,295,3.0,4.0,100,0.00,,,0.01,Wunderground v.1.15,2013-08-01 12:18:00,
2013-08-01 07:22:00,60.4,60.4,29.86,WNW,295,3.0,4.0,100,0.00,,,0.01,Wunderground v.1.15,2013-08-01 12:22:00,
2013-08-01 07:23:00,60.5,60.5,29.86,WNW,295,3.0,5.0,100,0.00,,,0.01,Wunderground v.1.15,2013-08-01 12:23:00,
2013-08-01 07:27:00,60.5,60.5,29.86,WNW,295,3.0,5.0,100,0.00,,,0.01,Wunderground v.1.15,2013-08-01 12:27:00,
2013-08-01 07:30:00,60.9,60.9,29.86,WNW,295,3.0,3.0,100,0.00,,,0.01,Wunderground v.1.15,2013-08-01 12:30:00,
2013-08-01 07:31:00,60.9,60.9,29.86,WNW,295,2.0,3.0,100,0.00,,,0.01,Wunderground v.1.15,2013-08-01 12:31:00,
2013-08-01 07:32:00,61.0,61.0,29.86,WNW,295,2.0,3.0,100,0.00,,,0.01,Wunderground v.1.15,2013-08-01 12:32:00,
2013-08-01 07:40:00,61.5,61.5,29.86,WNW,295,4.0,4.0,100,0.00,,,0.01,Wunderground v.1.15,2013-08-01 12:40:00,
2013-08-01 07:41:00,61.6,61.6,29.86,WNW,295,5.0,5.0,100,0.00,,,0.01,Wunderground v.1.15,2013-08-01 12:41:00,
2013-08-01 07:45:00,61.8,61.8,29.86,WNW,295,3.0,5.0,100,0.00,,,0.01,Wunderground v.1.15,2013-08-01 12:45:00,
2013-08-01 07:47:00,62.0,62.0,29.86,WNW,295,4.0,5.0,100,0.00,,,0.01,Wunderground v.1.15,2013-08-01 12:47:00,
2013-08-01 07:50:00,62.3,62.0,29.86,WNW,295,4.0,4.0,99,0.00,,,0.01,Wunderground v.1.15,2013-08-01 12:50:00,
2013-08-01 07:52:00,62.4,62.1,29.86,WNW,295,3.0,4.0,99,0.00,,,0.01,Wunderground v.1.15,2013-08-01 12:52:00,
2013-08-01 07:55:00,62.7,62.4,29.86,NW,304,6.0,6.0,99,0.00,,,0.01,Wunderground v.1.15,2013-08-01 12:55:00,
2013-08-01 07:56:00,62.7,62.4,29.87,NW,307,3.0,6.0,99,0.00,,,0.01,Wunderground v.1.15,2013-08-01 12:56:00,
2013-08-01 07:57:00,62.9,62.6,29.87,NW,307,2.0,6.0,99,0.00,,,0.01,Wunderground v.1.15,2013-08-01 12:57:00,
2013-08-01 08:01:00,63.1,62.8,29.87,NW,307,3.0,3.0,99,0.00,,,0.01,Wunderground v.1.15,2013-08-01 13:01:00,
2013-08-01 08:05:00,63.2,62.9,29.87,NW,311,3.0,4.0,99,0.00,,,0.01,Wunderground v.1.15,2013-08-01 13:05:00,
2013-08-01 08:06:00,63.2,62.6,29.87,NW,316,4.0,5.0,98,0.00,,,0.01,Wunderground v.1.15,2013-08-01 13:06:00,
2013-08-01 08:11:00,63.2,62.6,29.87,NW,319,6.0,6.0,98,0.00,,,0.01,Wunderground v.1.15,2013-08-01 13:11:00,
2013-08-01 08:12:00,63.4,62.8,29.86,NW,320,6.0,6.0,98,0.00,,,0.01,Wunderground v.1.15,2013-08-01 13:12:00,
2013-08-01 08:17:00,63.5,62.6,29.86,NNW,329,4.0,7.0,97,0.00,,,0.01,Wunderground v.1.15,2013-08-01 13:17:00,
2013-08-01 08:18:00,63.5,62.3,29.86,NNW,329,2.0,7.0,96,0.00,,,0.01,Wunderground v.1.15,2013-08-01 13:18:00,
2013-08-01 08:22:00,63.7,62.2,29.86,NW,309,3.0,6.0,95,0.00,,,0.01,Wunderground v.1.15,2013-08-01 13:22:00,
2013-08-01 08:25:00,63.9,62.4,29.86,NW,312,2.0,6.0,95,0.00,,,0.01,Wunderground v.1.15,2013-08-01 13:25:00,
2013-08-01 08:27:00,64.2,62.4,29.87,NW,311,5.0,6.0,94,0.00,,,0.01,Wunderground v.1.15,2013-08-01 13:27:00,
2013-08-01 08:30:00,64.2,62.1,29.87,NW,311,3.0,6.0,93,0.00,,,0.01,Wunderground v.1.15,2013-08-01 13:30:00,
2013-08-01 08:31:00,64.3,62.2,29.87,NW,311,2.0,6.0,93,0.00,,,0.01,Wunderground v.1.15,2013-08-01 13:31:00,
2013-08-01 08:36:00,64.5,62.1,29.87,NW,309,4.0,6.0,92,0.00,,,0.01,Wunderground v.1.15,2013-08-01 13:36:00,
2013-08-01 08:40:00,64.5,61.8,29.87,NW,307,5.0,5.0,91,0.00,,,0.01,Wunderground v.1.15,2013-08-01 13:40:00,
2013-08-01 08:45:00,64.7,61.4,29.87,NW,308,4.0,6.0,89,0.00,,,0.01,Wunderground v.1.15,2013-08-01 13:45:00,
2013-08-01 08:51:00,65.0,61.4,29.87,NNW,340,6.0,9.0,88,0.00,,,0.01,Wunderground v.1.15,2013-08-01 13:51:00,
2013-08-01 08:52:00,65.0,61.4,29.87,NNW,335,7.0,9.0,88,0.00,,,0.01,Wunderground v.1.15,2013-08-01 13:52:00,
2013-08-01 08:54:00,65.0,61.0,29.87,NNW,335,5.0,9.0,87,0.00,,,0.01,Wunderground v.1.15,2013-08-01 13:54:00,
2013-08-01 09:01:00,65.8,61.8,29.87,NNW,333,2.0,5.0,87,0.00,,,0.01,Wunderground v.1.15,2013-08-01 14:01:00,
2013-08-01 09:02:00,65.8,61.5,29.87,NNW,333,1.0,5.0,86,0.00,,,0.01,Wunderground v.1.15,2013-08-01 14:02:00,
2013-08-01 09:06:00,66.0,61.4,29.87,NW,311,4.0,6.0,85,0.00,,,0.01,Wunderground v.1.15,2013-08-01 14:06:00,
2013-08-01 09:07:00,66.1,61.8,29.87,NW,311,3.0,6.0,86,0.00,,,0.01,Wunderground v.1.15,2013-08-01 14:07:00,
2013-08-01 09:12:00,66.4,62.1,29.87,NW,311,3.0,4.0,86,0.00,,,0.01,Wunderground v.1.15,2013-08-01 14:12:00,
2013-08-01 09:15:00,66.6,62.3,29.87,NW,311,3.0,4.0,86,0.00,,,0.01,Wunderground v.1.15,2013-08-01 14:15:00,
2013-08-01 09:18:00,66.8,61.8,29.87,NW,314,2.0,4.0,84,0.00,,,0.01,Wunderground v.1.15,2013-08-01 14:18:00,
2013-08-01 09:19:00,66.8,62.1,29.87,NW,314,4.0,4.0,85,0.00,,,0.01,Wunderground v.1.15,2013-08-01 14:19:00,
2013-08-01 09:21:00,67.3,63.0,29.87,NW,314,2.0,5.0,86,0.00,,,0.01,Wunderground v.1.15,2013-08-01 14:21:00,
2013-08-01 09:25:00,67.4,62.1,29.87,NW,306,1.0,5.0,83,0.00,,,0.01,Wunderground v.1.15,2013-08-01 14:25:00,
2013-08-01 09:27:00,67.8,62.8,29.86,NW,307,3.0,5.0,84,0.00,,,0.01,Wunderground v.1.15,2013-08-01 14:27:00,
2013-08-01 09:30:00,67.9,62.2,29.86,NW,307,2.0,3.0,82,0.00,,,0.01,Wunderground v.1.15,2013-08-01 14:30:00,
2013-08-01 09:34:00,67.9,62.2,29.86,NW,307,3.0,4.0,82,0.00,,,0.01,Wunderground v.1.15,2013-08-01 14:34:00,
2013-08-01 09:36:00,67.9,61.9,29.86,NW,307,2.0,4.0,81,0.00,,,0.01,Wunderground v.1.15,2013-08-01 14:36:00,
2013-08-01 09:37:00,67.9,61.9,29.86,NW,307,4.0,4.0,81,0.00,,,0.01,Wunderground v.1.15,2013-08-01 14:37:00,
2013-08-01 09:40:00,68.1,61.0,29.86,NW,317,4.0,4.0,78,0.00,,,0.01,Wunderground v.1.15,2013-08-01 14:40:00,
2013-08-01 09:45:00,68.3,60.4,29.87,NNW,333,3.0,7.0,76,0.00,,,0.01,Wunderground v.1.15,2013-08-01 14:45:00,
2013-08-01 09:46:00,68.4,60.5,29.87,NNW,333,4.0,7.0,76,0.00,,,0.01,Wunderground v.1.15,2013-08-01 14:46:00,
2013-08-01 09:51:00,68.8,60.9,29.87,North,352,5.0,7.0,76,0.00,,,0.01,Wunderground v.1.15,2013-08-01 14:51:00,
2013-08-01 09:52:00,68.9,60.6,29.87,North,352,4.0,7.0,75,0.00,,,0.01,Wunderground v.1.15,2013-08-01 14:52:00,
2013-08-01 09:57:00,69.4,61.1,29.87,NNW,333,4.0,7.0,75,0.00,,,0.01,Wunderground v.1.15,2013-08-01 14:57:00,
2013-08-01 10:00:00,69.6,60.6,29.87,NNW,330,2.0,4.0,73,0.00,,,0.01,Wunderground v.1.15,2013-08-01 15:00:00,
2013-08-01 10:07:00,69.9,61.2,29.87,NNW,330,6.0,9.0,74,0.00,,,0.01,Wunderground v.1.15,2013-08-01 15:07:00,
2013-08-01 10:09:00,69.8,60.4,29.87,NNW,328,5.0,9.0,72,0.00,,,0.01,Wunderground v.1.15,2013-08-01 15:09:00,
2013-08-01 10:12:00,69.9,60.8,29.87,NNW,340,6.0,6.0,73,0.00,,,0.01,Wunderground v.1.15,2013-08-01 15:12:00,
2013-08-01 10:16:00,70.3,60.1,29.87,NNW,328,5.0,6.0,70,0.00,,,0.01,Wunderground v.1.15,2013-08-01 15:16:00,
2013-08-01 10:18:00,70.3,60.4,29.87,NNW,338,7.0,7.0,71,0.00,,,0.01,Wunderground v.1.15,2013-08-01 15:18:00,
2013-08-01 10:23:00,70.4,59.3,29.87,North,359,4.0,7.0,68,0.00,,,0.01,Wunderground v.1.15,2013-08-01 15:23:00,
2013-08-01 10:24:00,70.4,58.9,29.87,North,354,5.0,7.0,67,0.00,,,0.01,Wunderground v.1.15,2013-08-01 15:24:00,
2013-08-01 10:26:00,70.6,59.9,29.87,NNW,345,5.0,7.0,69,0.00,,,0.01,Wunderground v.1.15,2013-08-01 15:26:00,
2013-08-01 10:29:00,70.8,60.1,29.87,NNW,340,10.0,10.0,69,0.00,,,0.01,Wunderground v.1.15,2013-08-01 15:29:00,
2013-08-01 10:30:00,70.8,60.1,29.87,NNW,344,10.0,11.0,69,0.00,,,0.01,Wunderground v.1.15,2013-08-01 15:30:00,
2013-08-01 10:32:00,70.6,59.5,29.87,NNW,345,7.0,11.0,68,0.00,,,0.01,Wunderground v.1.15,2013-08-01 15:32:00,
2013-08-01 10:36:00,70.4,58.9,29.87,North,353,6.0,13.0,67,0.00,,,0.01,Wunderground v.1.15,2013-08-01 15:36:00,
2013-08-01 10:37:00,70.6,59.1,29.87,North,355,5.0,13.0,67,0.00,,,0.01,Wunderground v.1.15,2013-08-01 15:37:00,
2013-08-01 10:39:00,70.8,60.1,29.87,NNW,330,4.0,7.0,69,0.00,,,0.01,Wunderground v.1.15,2013-08-01 15:39:00,
2013-08-01 10:41:00,70.8,59.7,29.87,WNW,299,6.0,12.0,68,0.00,,,0.01,Wunderground v.1.15,2013-08-01 15:41:00,
2013-08-01 10:46:00,70.8,60.5,29.87,North,349,10.0,12.0,70,0.00,,,0.01,Wunderground v.1.15,2013-08-01 15:46:00,
2013-08-01 10:50:00,70.8,59.3,29.87,NNW,328,17.0,17.0,67,0.00,,,0.01,Wunderground v.1.15,2013-08-01 15:50:00,
2013-08-01 10:51:00,70.8,58.4,29.87,NNW,332,8.0,17.0,65,0.00,,,0.01,Wunderground v.1.15,2013-08-01 15:51:00,
2013-08-01 10:52:00,70.6,58.3,29.87,NW,309,6.0,17.0,65,0.00,,,0.01,Wunderground v.1.15,2013-08-01 15:52:00,
2013-08-01 10:55:00,70.4,58.1,29.87,North,354,12.0,17.0,65,0.00,,,0.01,Wunderground v.1.15,2013-08-01 15:55:00,
2013-08-01 10:57:00,70.4,58.5,29.87,NNW,342,14.0,17.0,66,0.00,,,0.01,Wunderground v.1.15,2013-08-01 15:57:00,
2013-08-01 11:00:00,70.4,58.1,29.87,North,0,11.0,12.0,65,0.00,,,0.01,Wunderground v.1.15,2013-08-01 16:00:00,
2013-08-01 11:01:00,70.4,58.1,29.87,NW,316,8.0,12.0,65,0.00,,,0.01,Wunderground v.1.15,2013-08-01 16:01:00,
2013-08-01 11:02:00,70.6,59.5,29.87,NW,325,12.0,17.0,68,0.00,,,0.01,Wunderground v.1.15,2013-08-01 16:02:00,
2013-08-01 11:07:00,70.6,58.3,29.87,NNW,332,13.0,17.0,65,0.00,,,0.01,Wunderground v.1.15,2013-08-01 16:07:00,
2013-08-01 11:12:00,70.6,57.8,29.87,NNW,340,14.0,18.0,64,0.00,,,0.01,Wunderground v.1.15,2013-08-01 16:12:00,
2013-08-01 11:15:00,70.6,56.9,29.87,NW,316,10.0,18.0,62,0.00,,,0.01,Wunderground v.1.15,2013-08-01 16:15:00,
2013-08-01 11:20:00,70.6,57.4,29.87,NNW,342,7.0,12.0,63,0.00,,,0.01,Wunderground v.1.15,2013-08-01 16:20:00,
2013-08-01 11:21:00,70.8,57.6,29.87,NNW,344,11.0,12.0,63,0.00,,,0.01,Wunderground v.1.15,2013-08-01 16:21:00,
2013-08-01 11:25:00,71.1,58.7,29.87,NW,313,16.0,16.0,65,0.00,,,0.01,Wunderground v.1.15,2013-08-01 16:25:00,
2013-08-01 11:27:00,71.3,57.6,29.88,NNW,329,12.0,19.0,62,0.00,,,0.01,Wunderground v.1.15,2013-08-01 16:27:00,
2013-08-01 11:32:00,71.1,56.5,29.88,NNW,328,13.0,19.0,60,0.00,,,0.01,Wunderground v.1.15,2013-08-01 16:32:00,
2013-08-01 11:34:00,71.1,57.0,29.88,NW,322,9.0,19.0,61,0.00,,,0.01,Wunderground v.1.15,2013-08-01 16:34:00,
2013-08-01 11:36:00,71.3,57.2,29.88,NW,321,9.0,19.0,61,0.00,,,0.01,Wunderground v.1.15,2013-08-01 16:36:00,
2013-08-01 11:40:00,71.1,56.5,29.88,North,349,6.0,12.0,60,0.00,,,0.01,Wunderground v.1.15,2013-08-01 16:40:00,
2013-08-01 11:45:00,71.5,57.8,29.88,North,351,9.0,12.0,62,0.00,,,0.01,Wunderground v.1.15,2013-08-01 16:45:00,
2013-08-01 11:50:00,72.0,55.9,29.88,NW,304,9.0,15.0,57,0.00,,,0.01,Wunderground v.1.15,2013-08-01 16:50:00,
2013-08-01 11:51:00,72.0,55.9,29.88,NW,323,13.0,15.0,57,0.00,,,0.01,Wunderground v.1.15,2013-08-01 16:51:00,
2013-08-01 11:56:00,72.0,55.9,29.88,North,351,9.0,19.0,57,0.00,,,0.01,Wunderground v.1.15,2013-08-01 16:56:00,
2013-08-01 12:01:00,71.1,56.0,29.87,NNW,335,8.0,13.0,59,0.00,,,0.01,Wunderground v.1.15,2013-08-01 17:01:00,
2013-08-01 12:06:00,71.8,55.7,29.87,WNW,303,11.0,14.0,57,0.00,,,0.01,Wunderground v.1.15,2013-08-01 17:06:00,
2013-08-01 12:11:00,72.3,56.2,29.87,North,350,7.0,12.0,57,0.00,,,0.01,Wunderground v.1.15,2013-08-01 17:11:00,
2013-08-01 12:12:00,72.3,57.2,29.87,NNW,333,6.0,14.0,59,0.00,,,0.01,Wunderground v.1.15,2013-08-01 17:12:00,
2013-08-01 12:16:00,72.1,55.0,29.87,NNW,341,14.0,17.0,55,0.00,,,0.01,Wunderground v.1.15,2013-08-01 17:16:00,
2013-08-01 12:20:00,71.3,54.3,29.87,NNW,345,13.0,18.0,55,0.00,,,0.01,Wunderground v.1.15,2013-08-01 17:20:00,
2013-08-01 12:21:00,70.9,52.9,29.87,NNW,328,10.0,18.0,53,0.00,,,0.01,Wunderground v.1.15,2013-08-01 17:21:00,
2013-08-01 12:26:00,71.1,52.6,29.88,NNW,345,13.0,22.0,52,0.00,,,0.01,Wunderground v.1.15,2013-08-01 17:26:00,
2013-08-01 12:27:00,71.1,53.1,29.88,NNW,330,9.0,22.0,53,0.00,,,0.01,Wunderground v.1.15,2013-08-01 17:27:00,
2013-08-01 12:31:00,70.9,54.4,29.88,NW,323,6.0,17.0,56,0.00,,,0.01,Wunderground v.1.15,2013-08-01 17:31:00,
2013-08-01 12:37:00,71.6,51.4,29.88,NNW,339,9.0,18.0,49,0.00,,,0.01,Wunderground v.1.15,2013-08-01 17:37:00,
2013-08-01 12:42:00,72.1,52.4,29.88,NNW,345,9.0,14.0,50,0.00,,,0.01,Wunderground v.1.15,2013-08-01 17:42:00,
2013-08-01 12:46:00,72.3,53.7,29.88,NW,306,7.0,16.0,52,0.00,,,0.01,Wunderground v.1.15,2013-08-01 17:46:00,
2013-08-01 12:47:00,72.3,53.7,29.88,WNW,301,8.0,16.0,52,0.00,,,0.01,Wunderground v.1.15,2013-08-01 17:47:00,
2013-08-01 12:52:00,72.5,52.2,29.88,NW,323,11.0,18.0,49,0.00,,,0.01,Wunderground v.1.15,2013-08-01 17:52:00,
2013-08-01 12:55:00,72.5,52.8,29.88,NW,317,12.0,18.0,50,0.00,,,0.01,Wunderground v.1.15,2013-08-01 17:55:00,
2013-08-01 12:57:00,72.5,53.3,29.87,NNW,338,14.0,21.0,51,0.00,,,0.01,Wunderground v.1.15,2013-08-01 17:57:00,
2013-08-01 13:00:00,72.0,52.9,29.87,NW,311,15.0,15.0,51,0.00,,,0.01,Wunderground v.1.15,2013-08-01 18:00:00,
2013-08-01 13:01:00,72.0,51.8,29.87,NW,315,15.0,16.0,49,0.00,,,0.01,Wunderground v.1.15,2013-08-01 18:01:00,
2013-08-01 13:05:00,72.3,53.7,29.87,NW,326,9.0,16.0,52,0.00,,,0.01,Wunderground v.1.15,2013-08-01 18:05:00,
2013-08-01 13:06:00,72.5,53.9,29.87,WNW,300,17.0,17.0,52,0.00,,,0.01,Wunderground v.1.15,2013-08-01 18:06:00,
2013-08-01 13:11:00,72.8,53.6,29.87,WNW,298,11.0,16.0,51,0.00,,,0.01,Wunderground v.1.15,2013-08-01 18:11:00,
2013-08-01 13:12:00,72.8,52.5,29.87,NW,322,9.0,16.0,49,0.00,,,0.01,Wunderground v.1.15,2013-08-01 18:12:00,
2013-08-01 13:17:00,73.0,53.3,29.87,North,0,15.0,19.0,50,0.00,,,0.01,Wunderground v.1.15,2013-08-01 18:17:00,
2013-08-01 13:20:00,73.0,53.3,29.87,North,356,10.0,13.0,50,0.00,,,0.01,Wunderground v.1.15,2013-08-01 18:20:00,
2013-08-01 13:25:00,72.7,53.0,29.87,North,359,10.0,15.0,50,0.00,,,0.01,Wunderground v.1.15,2013-08-01 18:25:00,
2013-08-01 13:30:00,73.2,56.1,29.87,NNW,335,11.0,12.0,55,0.00,,,0.01,Wunderground v.1.15,2013-08-01 18:30:00,
2013-08-01 13:35:00,73.9,56.2,29.87,WNW,295,20.0,20.0,54,0.00,,,0.01,Wunderground v.1.15,2013-08-01 18:35:00,
2013-08-01 13:37:00,74.0,54.2,29.87,NNW,330,16.0,21.0,50,0.00,,,0.01,Wunderground v.1.15,2013-08-01 18:37:00,
2013-08-01 13:42:00,73.9,53.0,29.87,North,355,11.0,17.0,48,0.00,,,0.01,Wunderground v.1.15,2013-08-01 18:42:00,
2013-08-01 13:45:00,73.2,52.9,29.87,NW,326,5.0,17.0,49,0.00,,,0.01,Wunderground v.1.15,2013-08-01 18:45:00,
2013-08-01 13:47:00,72.8,54.7,29.87,NNW,343,11.0,19.0,53,0.00,,,0.01,Wunderground v.1.15,2013-08-01 18:47:00,
2013-08-01 13:52:00,72.5,52.2,29.87,NNW,331,8.0,14.0,49,0.00,,,0.01,Wunderground v.1.15,2013-08-01 18:52:00,
2013-08-01 13:53:00,72.7,53.0,29.87,NNW,331,13.0,14.0,50,0.00,,,0.01,Wunderground v.1.15,2013-08-01 18:53:00,
2013-08-01 14:01:00,73.0,54.3,29.87,NW,318,6.0,12.0,52,0.00,,,0.01,Wunderground v.1.15,2013-08-01 19:01:00,
2013-08-01 14:02:00,73.3,55.6,29.87,WNW,292,9.0,12.0,54,0.00,,,0.01,Wunderground v.1.15,2013-08-01 19:02:00,
2013-08-01 14:06:00,73.5,53.2,29.87,WNW,303,8.0,14.0,49,0.00,,,0.01,Wunderground v.1.15,2013-08-01 19:06:00,
2013-08-01 14:07:00,73.7,53.9,29.87,NNW,333,9.0,14.0,50,0.00,,,0.01,Wunderground v.1.15,2013-08-01 19:07:00,
2013-08-01 14:12:00,73.5,52.6,29.87,North,351,8.0,11.0,48,0.00,,,0.01,Wunderground v.1.15,2013-08-01 19:12:00,
2013-08-01 14:13:00,73.7,53.3,29.87,NW,309,7.0,15.0,49,0.00,,,0.01,Wunderground v.1.15,2013-08-01 19:13:00,
2013-08-01 14:14:00,73.7,54.4,29.87,North,352,10.0,15.0,51,0.00,,,0.01,Wunderground v.1.15,2013-08-01 19:14:00,
2013-08-01 14:20:00,73.5,53.2,29.87,North,4,5.0,10.0,49,0.00,,,0.01,Wunderground v.1.15,2013-08-01 19:20:00,
2013-08-01 14:21:00,73.5,54.3,29.87,NNW,348,5.0,10.0,51,0.00,,,0.01,Wunderground v.1.15,2013-08-01 19:21:00,
2013-08-01 14:25:00,73.0,53.3,29.87,NW,321,7.0,14.0,50,0.00,,,0.01,Wunderground v.1.15,2013-08-01 19:25:00,
2013-08-01 14:26:00,73.0,54.9,29.87,NNW,344,5.0,14.0,53,0.00,,,0.01,Wunderground v.1.15,2013-08-01 19:26:00,
2013-08-01 14:27:00,72.8,54.1,29.87,NW,316,7.0,14.0,52,0.00,,,0.01,Wunderground v.1.15,2013-08-01 19:27:00,
2013-08-01 14:31:00,73.3,54.6,29.87,NNW,330,15.0,15.0,52,0.00,,,0.01,Wunderground v.1.15,2013-08-01 19:31:00,
2013-08-01 14:32:00,73.3,54.1,29.87,NW,313,12.0,15.0,51,0.00,,,0.01,Wunderground v.1.15,2013-08-01 19:32:00,
2013-08-01 14:35:00,73.3,53.0,29.87,NNW,332,9.0,15.0,49,0.00,,,0.01,Wunderground v.1.15,2013-08-01 19:35:00,
2013-08-01 14:38:00,73.0,53.3,29.87,NW,319,8.0,15.0,50,0.00,,,0.01,Wunderground v.1.15,2013-08-01 19:38:00,
2013-08-01 14:40:00,72.7,53.0,29.87,NNW,332,12.0,12.0,50,0.00,,,0.01,Wunderground v.1.15,2013-08-01 19:40:00,
2013-08-01 14:42:00,72.7,53.0,29.87,NNW,347,5.0,12.0,50,0.00,,,0.01,Wunderground v.1.15,2013-08-01 19:42:00,
2013-08-01 14:46:00,73.0,55.4,29.87,NW,312,10.0,15.0,54,0.00,,,0.01,Wunderground v.1.15,2013-08-01 19:46:00,
2013-08-01 14:47:00,73.3,53.0,29.87,North,352,18.0,18.0,49,0.00,,,0.01,Wunderground v.1.15,2013-08-01 19:47:00,
2013-08-01 14:49:00,73.5,52.6,29.87,NNW,342,11.0,12.0,48,0.00,,,0.01,Wunderground v.1.15,2013-08-01 19:49:00,
2013-08-01 14:52:00,73.7,53.3,29.87,NW,309,16.0,16.0,49,0.00,,,0.01,Wunderground v.1.15,2013-08-01 19:52:00,
2013-08-01 14:56:00,73.7,53.9,29.87,NW,318,10.0,19.0,50,0.00,,,0.01,Wunderground v.1.15,2013-08-01 19:56:00,
2013-08-01 14:57:00,73.7,55.5,29.87,NNW,329,10.0,19.0,53,0.00,,,0.01,Wunderground v.1.15,2013-08-01 19:57:00,
2013-08-01 15:01:00,74.0,54.2,29.87,NW,316,10.0,13.0,50,0.00,,,0.01,Wunderground v.1.15,2013-08-01 20:01:00,
2013-08-01 15:05:00,74.6,53.6,29.87,NNW,346,12.0,14.0,48,0.00,,,0.01,Wunderground v.1.15,2013-08-01 20:05:00,
2013-08-01 15:07:00,74.6,54.2,29.87,WNW,295,12.0,19.0,49,0.00,,,0.01,Wunderground v.1.15,2013-08-01 20:07:00,
2013-08-01 15:13:00,74.6,53.6,29.87,WNW,302,12.0,18.0,48,0.00,,,0.01,Wunderground v.1.15,2013-08-01 20:13:00,
2013-08-01 15:14:00,74.6,53.6,29.87,WNW,293,10.0,18.0,48,0.00,,,0.01,Wunderground v.1.15,2013-08-01 20:14:00,
2013-08-01 15:15:00,74.6,53.6,29.87,NW,311,9.0,18.0,48,0.00,,,0.01,Wunderground v.1.15,2013-08-01 20:15:00,
2013-08-01 15:20:00,74.9,53.9,29.87,NW,309,8.0,18.0,48,0.00,,,0.01,Wunderground v.1.15,2013-08-01 20:20:00,
2013-08-01 15:22:00,75.1,53.5,29.87,NW,323,11.0,16.0,47,0.00,,,0.01,Wunderground v.1.15,2013-08-01 20:22:00,
2013-08-01 15:27:00,75.3,54.3,29.86,NW,304,11.0,17.0,48,0.00,,,0.01,Wunderground v.1.15,2013-08-01 20:27:00,
2013-08-01 15:30:00,75.4,53.8,29.86,NW,321,12.0,17.0,47,0.00,,,0.01,Wunderground v.1.15,2013-08-01 20:30:00,
2013-08-01 15:34:00,75.3,53.7,29.86,NW,309,11.0,15.0,47,0.00,,,0.01,Wunderground v.1.15,2013-08-01 20:34:00,
2013-08-01 15:36:00,75.1,53.5,29.86,NNW,332,9.0,15.0,47,0.00,,,0.01,Wunderground v.1.15,2013-08-01 20:36:00,
2013-08-01 15:37:00,75.1,54.6,29.86,NW,320,9.0,15.0,49,0.00,,,0.01,Wunderground v.1.15,2013-08-01 20:37:00,
2013-08-01 15:40:00,75.1,55.2,29.86,NNW,341,8.0,15.0,50,0.00,,,0.01,Wunderground v.1.15,2013-08-01 20:40:00,
2013-08-01 15:42:00,75.1,52.9,29.86,NW,316,7.0,10.0,46,0.00,,,0.01,Wunderground v.1.15,2013-08-01 20:42:00,
2013-08-01 15:43:00,75.1,52.9,29.86,NW,308,10.0,11.0,46,0.00,,,0.01,Wunderground v.1.15,2013-08-01 20:43:00,
2013-08-01 15:44:00,75.1,54.1,29.86,NW,321,10.0,11.0,48,0.00,,,0.01,Wunderground v.1.15,2013-08-01 20:44:00,
2013-08-01 15:45:00,75.1,53.5,29.86,NNW,330,10.0,13.0,47,0.00,,,0.01,Wunderground v.1.15,2013-08-01 20:45:00,
2013-08-01 15:51:00,74.7,53.7,29.86,NNW,330,9.0,11.0,48,0.00,,,0.01,Wunderground v.1.15,2013-08-01 20:51:00,
2013-08-01 15:52:00,74.7,53.1,29.86,WNW,290,12.0,12.0,47,0.00,,,0.01,Wunderground v.1.15,2013-08-01 20:52:00,
2013-08-01 15:57:00,75.1,54.6,29.86,NW,304,11.0,13.0,49,0.00,,,0.01,Wunderground v.1.15,2013-08-01 20:57:00,
2013-08-01 16:00:00,75.3,54.3,29.86,WNW,295,7.0,10.0,48,0.00,,,0.01,Wunderground v.1.15,2013-08-01 21:00:00,
2013-08-01 16:02:00,75.3,54.3,29.86,NNW,327,13.0,14.0,48,0.00,,,0.01,Wunderground v.1.15,2013-08-01 21:02:00,
2013-08-01 16:05:00,74.7,53.1,29.86,NW,319,12.0,14.0,47,0.00,,,0.01,Wunderground v.1.15,2013-08-01 21:05:00,
2013-08-01 16:07:00,74.7,53.1,29.86,NW,312,4.0,14.0,47,0.00,,,0.01,Wunderground v.1.15,2013-08-01 21:07:00,
2013-08-01 16:11:00,74.9,54.4,29.86,NNW,328,6.0,11.0,49,0.00,,,0.01,Wunderground v.1.15,2013-08-01 21:11:00,
2013-08-01 16:14:00,75.4,54.3,29.85,WNW,301,10.0,12.0,48,0.00,,,0.01,Wunderground v.1.15,2013-08-01 21:14:00,
2013-08-01 16:15:00,75.4,53.8,29.85,NNW,348,7.0,12.0,47,0.00,,,0.01,Wunderground v.1.15,2013-08-01 21:15:00,
2013-08-01 16:16:00,75.4,53.8,29.85,North,356,9.0,12.0,47,0.00,,,0.01,Wunderground v.1.15,2013-08-01 21:16:00,
2013-08-01 16:17:00,75.4,53.8,29.85,WNW,295,7.0,13.0,47,0.00,,,0.01,Wunderground v.1.15,2013-08-01 21:17:00,
2013-08-01 16:20:00,75.3,54.3,29.85,NW,310,9.0,16.0,48,0.00,,,0.01,Wunderground v.1.15,2013-08-01 21:20:00,
2013-08-01 16:22:00,75.3,52.5,29.85,NW,320,12.0,16.0,45,0.00,,,0.01,Wunderground v.1.15,2013-08-01 21:22:00,
2013-08-01 16:23:00,75.3,51.9,29.85,NW,311,9.0,16.0,44,0.00,,,0.01,Wunderground v.1.15,2013-08-01 21:23:00,
2013-08-01 16:25:00,75.6,52.1,29.85,WNW,282,5.0,16.0,44,0.00,,,0.01,Wunderground v.1.15,2013-08-01 21:25:00,
2013-08-01 16:26:00,75.6,52.1,29.85,WNW,301,5.0,16.0,44,0.00,,,0.01,Wunderground v.1.15,2013-08-01 21:26:00,
2013-08-01 16:30:00,75.8,53.5,29.85,NNW,328,10.0,10.0,46,0.00,,,0.01,Wunderground v.1.15,2013-08-01 21:30:00,
2013-08-01 16:31:00,75.8,53.5,29.85,NW,316,4.0,14.0,46,0.00,,,0.01,Wunderground v.1.15,2013-08-01 21:31:00,
2013-08-01 16:32:00,75.8,54.7,29.85,NW,322,15.0,15.0,48,0.00,,,0.01,Wunderground v.1.15,2013-08-01 21:32:00,
2013-08-01 16:35:00,75.6,53.4,29.85,NW,314,13.0,15.0,46,0.00,,,0.01,Wunderground v.1.15,2013-08-01 21:35:00,
2013-08-01 16:36:00,75.4,53.2,29.85,NW,314,12.0,15.0,46,0.00,,,0.01,Wunderground v.1.15,2013-08-01 21:36:00,
2013-08-01 16:37:00,75.4,53.2,29.85,NW,319,12.0,15.0,46,0.00,,,0.01,Wunderground v.1.15,2013-08-01 21:37:00,
2013-08-01 16:45:00,74.9,54.4,29.85,North,358,9.0,11.0,49,0.00,,,0.01,Wunderground v.1.15,2013-08-01 21:45:00,
2013-08-01 16:46:00,74.9,53.9,29.85,NW,312,9.0,14.0,48,0.00,,,0.01,Wunderground v.1.15,2013-08-01 21:46:00,
2013-08-01 16:47:00,74.9,53.9,29.85,NNW,339,10.0,14.0,48,0.00,,,0.01,Wunderground v.1.15,2013-08-01 21:47:00,
2013-08-01 16:50:00,74.7,53.7,29.85,NW,324,11.0,11.0,48,0.00,,,0.01,Wunderground v.1.15,2013-08-01 21:50:00,
2013-08-01 16:52:00,74.7,54.3,29.85,NNW,331,14.0,14.0,49,0.00,,,0.01,Wunderground v.1.15,2013-08-01 21:52:00,
2013-08-01 16:54:00,74.9,53.9,29.85,NNW,327,7.0,14.0,48,0.00,,,0.01,Wunderground v.1.15,2013-08-01 21:54:00,
2013-08-01 16:57:00,75.1,54.6,29.85,NW,311,3.0,14.0,49,0.00,,,0.01,Wunderground v.1.15,2013-08-01 21:57:00,
2013-08-01 16:59:00,75.6,57.3,29.85,NNW,328,5.0,8.0,53,0.00,,,0.01,Wunderground v.1.15,2013-08-01 21:59:00,
2013-08-01 17:00:00,75.6,57.3,29.85,NW,326,3.0,8.0,53,0.00,,,0.01,Wunderground v.1.15,2013-08-01 22:00:00,
2013-08-01 17:05:00,76.0,53.1,29.85,WNW,293,13.0,13.0,45,0.00,,,0.01,Wunderground v.1.15,2013-08-01 22:05:00,
2013-08-01 17:07:00,75.8,52.9,29.85,NW,311,4.0,13.0,45,0.00,,,0.01,Wunderground v.1.15,2013-08-01 22:07:00,
2013-08-01 17:08:00,75.8,52.9,29.85,NW,311,5.0,13.0,45,0.00,,,0.01,Wunderground v.1.15,2013-08-01 22:08:00,
2013-08-01 17:10:00,75.8,54.1,29.85,NW,308,6.0,8.0,47,0.00,,,0.01,Wunderground v.1.15,2013-08-01 22:10:00,
2013-08-01 17:11:00,75.8,54.7,29.85,NW,312,9.0,9.0,48,0.00,,,0.01,Wunderground v.1.15,2013-08-01 22:11:00,
2013-08-01 17:15:00,75.3,53.7,29.84,NW,316,6.0,10.0,47,0.00,,,0.01,Wunderground v.1.15,2013-08-01 22:15:00,
2013-08-01 17:20:00,74.7,52.5,29.84,WNW,298,9.0,9.0,46,0.00,,,0.01,Wunderground v.1.15,2013-08-01 22:20:00,
2013-08-01 17:21:00,74.7,53.7,29.84,NW,319,5.0,9.0,48,0.00,,,0.01,Wunderground v.1.15,2013-08-01 22:21:00,
2013-08-01 17:22:00,74.7,52.5,29.84,NNW,336,6.0,9.0,46,0.00,,,0.01,Wunderground v.1.15,2013-08-01 22:22:00,
2013-08-01 17:27:00,75.1,52.3,29.84,North,354,5.0,9.0,45,0.00,,,0.01,Wunderground v.1.15,2013-08-01 22:27:00,
2013-08-01 17:30:00,75.3,54.3,29.84,NW,324,12.0,12.0,48,0.00,,,0.01,Wunderground v.1.15,2013-08-01 22:30:00,
2013-08-01 17:33:00,75.3,52.5,29.84,NW,309,5.0,15.0,45,0.00,,,0.01,Wunderground v.1.15,2013-08-01 22:33:00,
2013-08-01 17:36:00,75.3,52.5,29.84,NW,315,4.0,15.0,45,0.00,,,0.01,Wunderground v.1.15,2013-08-01 22:36:00,
2013-08-01 17:37:00,75.4,53.8,29.84,NNW,330,6.0,15.0,47,0.00,,,0.01,Wunderground v.1.15,2013-08-01 22:37:00,
2013-08-01 17:38:00,75.4,52.0,29.84,NW,305,5.0,15.0,44,0.00,,,0.01,Wunderground v.1.15,2013-08-01 22:38:00,
2013-08-01 17:41:00,75.8,55.8,29.83,NNW,332,6.0,10.0,50,0.00,,,0.01,Wunderground v.1.15,2013-08-01 22:41:00,
2013-08-01 17:42:00,75.8,55.8,29.83,NNW,335,10.0,10.0,50,0.00,,,0.01,Wunderground v.1.15,2013-08-01 22:42:00,
2013-08-01 17:45:00,76.0,53.7,29.83,NNW,335,9.0,10.0,46,0.00,,,0.01,Wunderground v.1.15,2013-08-01 22:45:00,
2013-08-01 17:47:00,76.0,53.1,29.83,NW,317,8.0,12.0,45,0.00,,,0.01,Wunderground v.1.15,2013-08-01 22:47:00,
2013-08-01 17:51:00,75.4,53.2,29.83,NW,306,9.0,9.0,46,0.00,,,0.01,Wunderground v.1.15,2013-08-01 22:51:00,
2013-08-01 17:52:00,75.4,53.2,29.83,NW,316,6.0,9.0,46,0.00,,,0.01,Wunderground v.1.15,2013-08-01 22:52:00,
2013-08-01 17:53:00,75.3,53.1,29.83,NNW,333,9.0,9.0,46,0.00,,,0.01,Wunderground v.1.15,2013-08-01 22:53:00,
2013-08-01 17:56:00,75.3,53.7,29.83,NNW,330,5.0,10.0,47,0.00,,,0.01,Wunderground v.1.15,2013-08-01 22:56:00,
2013-08-01 17:58:00,75.3,53.7,29.83,NNW,333,5.0,10.0,47,0.00,,,0.01,Wunderground v.1.15,2013-08-01 22:58:00,
2013-08-01 18:01:00,75.1,52.9,29.83,WNW,300,11.0,11.0,46,0.00,,,0.01,Wunderground v.1.15,2013-08-01 23:01:00,
2013-08-01 18:02:00,75.1,52.3,29.83,WNW,297,9.0,11.0,45,0.00,,,0.01,Wunderground v.1.15,2013-08-01 23:02:00,
2013-08-01 18:06:00,75.1,52.3,29.83,NW,326,7.0,11.0,45,0.00,,,0.01,Wunderground v.1.15,2013-08-01 23:06:00,
2013-08-01 18:10:00,74.9,52.7,29.83,NW,322,7.0,7.0,46,0.00,,,0.01,Wunderground v.1.15,2013-08-01 23:10:00,
2013-08-01 18:11:00,74.9,52.7,29.83,NW,320,7.0,8.0,46,0.00,,,0.01,Wunderground v.1.15,2013-08-01 23:11:00,
2013-08-01 18:13:00,74.7,51.9,29.83,NW,311,4.0,11.0,45,0.00,,,0.01,Wunderground v.1.15,2013-08-01 23:13:00,
2013-08-01 18:15:00,74.7,51.9,29.83,NW,309,4.0,11.0,45,0.00,,,0.01,Wunderground v.1.15,2013-08-01 23:15:00,
2013-08-01 18:17:00,74.9,52.1,29.83,NW,306,5.0,11.0,45,0.00,,,0.01,Wunderground v.1.15,2013-08-01 23:17:00,
2013-08-01 18:18:00,74.9,52.1,29.83,WNW,298,5.0,11.0,45,0.00,,,0.01,Wunderground v.1.15,2013-08-01 23:18:00,
2013-08-01 18:19:00,74.9,52.1,29.83,WNW,285,7.0,11.0,45,0.00,,,0.01,Wunderground v.1.15,2013-08-01 23:19:00,
2013-08-01 18:22:00,75.1,53.5,29.83,West,266,11.0,12.0,47,0.00,,,0.01,Wunderground v.1.15,2013-08-01 23:22:00,
2013-08-01 18:25:00,75.3,53.1,29.83,NW,322,5.0,12.0,46,0.00,,,0.01,Wunderground v.1.15,2013-08-01 23:25:00,
2013-08-01 18:31:00,75.1,54.1,29.83,WNW,302,9.0,10.0,48,0.00,,,0.01,Wunderground v.1.15,2013-08-01 23:31:00,
2013-08-01 18:32:00,75.1,52.9,29.83,West,266,11.0,12.0,46,0.00,,,0.01,Wunderground v.1.15,2013-08-01 23:32:00,
2013-08-01 18:35:00,74.9,53.9,29.83,WNW,301,6.0,12.0,48,0.00,,,0.01,Wunderground v.1.15,2013-08-01 23:35:00,
2013-08-01 18:37:00,74.9,52.1,29.83,WNW,298,12.0,13.0,45,0.00,,,0.01,Wunderground v.1.15,2013-08-01 23:37:00,
2013-08-01 18:40:00,74.7,53.1,29.83,WNW,303,5.0,11.0,47,0.00,,,0.01,Wunderground v.1.15,2013-08-01 23:40:00,
2013-08-01 18:45:00,74.9,53.3,29.83,NW,307,9.0,11.0,47,0.00,,,0.01,Wunderground v.1.15,2013-08-01 23:45:00,
2013-08-01 18:46:00,74.9,52.1,29.83,NW,326,9.0,11.0,45,0.00,,,0.01,Wunderground v.1.15,2013-08-01 23:46:00,
2013-08-01 18:50:00,74.9,52.1,29.83,WNW,302,9.0,10.0,45,0.00,,,0.01,Wunderground v.1.15,2013-08-01 23:50:00,
2013-08-01 18:51:00,74.9,53.3,29.83,WNW,293,7.0,14.0,47,0.00,,,0.01,Wunderground v.1.15,2013-08-01 23:51:00,
2013-08-01 18:52:00,74.7,51.9,29.83,WNW,296,13.0,15.0,45,0.00,,,0.01,Wunderground v.1.15,2013-08-01 23:52:00,
2013-08-01 18:56:00,74.6,53.6,29.83,NW,309,4.0,15.0,48,0.00,,,0.01,Wunderground v.1.15,2013-08-01 23:56:00,
2013-08-01 19:00:00,74.4,52.9,29.84,NW,321,3.0,9.0,47,0.00,,,0.01,Wunderground v.1.15,2013-08-02 00:00:00,
2013-08-01 19:01:00,74.4,52.9,29.84,WNW,298,10.0,10.0,47,0.00,,,0.01,Wunderground v.1.15,2013-08-02 00:01:00,
2013-08-01 19:02:00,74.4,52.9,29.84,NW,320,7.0,10.0,47,0.00,,,0.01,Wunderground v.1.15,2013-08-02 00:02:00,
2013-08-01 19:05:00,74.2,52.7,29.84,NW,320,6.0,10.0,47,0.00,,,0.01,Wunderground v.1.15,2013-08-02 00:05:00,
2013-08-01 19:07:00,74.2,52.1,29.84,NW,317,4.0,10.0,46,0.00,,,0.01,Wunderground v.1.15,2013-08-02 00:07:00,
2013-08-01 19:09:00,74.0,52.5,29.84,WNW,299,3.0,10.0,47,0.00,,,0.01,Wunderground v.1.15,2013-08-02 00:09:00,
2013-08-01 19:14:00,74.0,52.5,29.84,WNW,297,3.0,8.0,47,0.00,,,0.01,Wunderground v.1.15,2013-08-02 00:14:00,
2013-08-01 19:15:00,74.0,53.1,29.84,NW,307,4.0,8.0,48,0.00,,,0.01,Wunderground v.1.15,2013-08-02 00:15:00,
2013-08-01 19:20:00,73.9,52.4,29.84,WNW,289,4.0,5.0,47,0.00,,,0.01,Wunderground v.1.15,2013-08-02 00:20:00,
2013-08-01 19:21:00,73.9,52.4,29.84,WNW,297,5.0,6.0,47,0.00,,,0.01,Wunderground v.1.15,2013-08-02 00:21:00,
2013-08-01 19:22:00,73.9,52.4,29.84,WNW,297,5.0,6.0,47,0.00,,,0.01,Wunderground v.1.15,2013-08-02 00:22:00,
2013-08-01 19:25:00,73.9,53.5,29.84,WNW,299,4.0,6.0,49,0.00,,,0.01,Wunderground v.1.15,2013-08-02 00:25:00,
2013-08-01 19:27:00,73.7,53.3,29.83,WNW,295,6.0,6.0,49,0.00,,,0.01,Wunderground v.1.15,2013-08-02 00:27:00,
2013-08-01 19:30:00,73.7,53.3,29.83,WNW,288,3.0,4.0,49,0.00,,,0.01,Wunderground v.1.15,2013-08-02 00:30:00,
2013-08-01 19:32:00,73.5,53.2,29.83,WNW,287,5.0,6.0,49,0.00,,,0.01,Wunderground v.1.15,2013-08-02 00:32:00,
2013-08-01 19:35:00,73.3,53.0,29.83,WNW,292,3.0,6.0,49,0.00,,,0.01,Wunderground v.1.15,2013-08-02 00:35:00,
2013-08-01 19:36:00,73.3,53.5,29.83,WNW,291,3.0,6.0,50,0.00,,,0.01,Wunderground v.1.15,2013-08-02 00:36:00,
2013-08-01 19:41:00,73.0,53.8,29.83,WNW,291,5.0,5.0,51,0.00,,,0.01,Wunderground v.1.15,2013-08-02 00:41:00,
2013-08-01 19:45:00,72.8,53.6,29.83,WNW,290,3.0,5.0,51,0.00,,,0.01,Wunderground v.1.15,2013-08-02 00:45:00,
2013-08-01 19:47:00,72.7,54.1,29.83,WNW,283,4.0,5.0,52,0.00,,,0.01,Wunderground v.1.15,2013-08-02 00:47:00,
2013-08-01 19:50:00,72.3,53.7,29.83,West,278,3.0,4.0,52,0.00,,,0.01,Wunderground v.1.15,2013-08-02 00:50:00,
2013-08-01 19:52:00,72.0,53.9,29.83,WSW,252,4.0,6.0,53,0.00,,,0.01,Wunderground v.1.15,2013-08-02 00:52:00,
2013-08-01 19:55:00,71.6,53.6,29.83,WSW,247,4.0,6.0,53,0.00,,,0.01,Wunderground v.1.15,2013-08-02 00:55:00,
2013-08-01 19:56:00,71.6,53.6,29.83,WSW,248,4.0,6.0,53,0.00,,,0.01,Wunderground v.1.15,2013-08-02 00:56:00,
2013-08-01 19:57:00,71.6,54.1,29.84,WSW,248,5.0,6.0,54,0.00,,,0.01,Wunderground v.1.15,2013-08-02 00:57:00,
2013-08-01 20:02:00,71.1,53.6,29.84,WSW,255,4.0,4.0,54,0.00,,,0.01,Wunderground v.1.15,2013-08-02 01:02:00,
2013-08-01 20:05:00,70.9,53.4,29.84,WSW,255,2.0,4.0,54,0.00,,,0.01,Wunderground v.1.15,2013-08-02 01:05:00,
2013-08-01 20:10:00,70.6,53.6,29.84,WSW,255,2.0,3.0,55,0.00,,,0.01,Wunderground v.1.15,2013-08-02 01:10:00,
2013-08-01 20:12:00,70.4,53.5,29.84,WSW,255,2.0,3.0,55,0.00,,,0.01,Wunderground v.1.15,2013-08-02 01:12:00,
2013-08-01 20:15:00,70.3,54.8,29.84,WSW,253,4.0,4.0,58,0.00,,,0.01,Wunderground v.1.15,2013-08-02 01:15:00,
2013-08-01 20:17:00,69.9,54.9,29.84,WSW,253,3.0,4.0,59,0.00,,,0.01,Wunderground v.1.15,2013-08-02 01:17:00,
2013-08-01 20:21:00,69.4,54.9,29.84,SW,230,5.0,5.0,60,0.00,,,0.01,Wunderground v.1.15,2013-08-02 01:21:00,
2013-08-01 20:25:00,69.1,54.6,29.84,SW,226,4.0,6.0,60,0.00,,,0.01,Wunderground v.1.15,2013-08-02 01:25:00,
2013-08-01 20:26:00,69.1,54.6,29.84,SW,218,5.0,6.0,60,0.00,,,0.01,Wunderground v.1.15,2013-08-02 01:26:00,
2013-08-01 20:27:00,69.1,54.6,29.83,SW,219,5.0,6.0,60,0.00,,,0.01,Wunderground v.1.15,2013-08-02 01:27:00,
2013-08-01 20:31:00,68.9,54.0,29.83,SW,227,6.0,6.0,59,0.00,,,0.01,Wunderground v.1.15,2013-08-02 01:31:00,
2013-08-01 20:32:00,68.9,54.0,29.83,SW,221,4.0,6.0,59,0.00,,,0.01,Wunderground v.1.15,2013-08-02 01:32:00,
2013-08-01 20:34:00,69.1,54.2,29.83,SW,232,4.0,6.0,59,0.00,,,0.01,Wunderground v.1.15,2013-08-02 01:34:00,
2013-08-01 20:37:00,68.9,54.0,29.83,SW,219,4.0,6.0,59,0.00,,,0.01,Wunderground v.1.15,2013-08-02 01:37:00,
2013-08-01 20:42:00,68.9,54.0,29.83,SW,225,4.0,6.0,59,0.00,,,0.01,Wunderground v.1.15,2013-08-02 01:42:00,
2013-08-01 20:45:00,68.8,54.3,29.83,SW,221,3.0,6.0,60,0.00,,,0.01,Wunderground v.1.15,2013-08-02 01:45:00,
2013-08-01 20:47:00,68.8,54.3,29.83,SW,219,3.0,6.0,60,0.00,,,0.01,Wunderground v.1.15,2013-08-02 01:47:00,
2013-08-01 20:50:00,68.6,54.6,29.83,SW,222,5.0,6.0,61,0.00,,,0.01,Wunderground v.1.15,2013-08-02 01:50:00,
2013-08-01 20:51:00,68.6,54.6,29.83,SW,214,5.0,5.0,61,0.00,,,0.01,Wunderground v.1.15,2013-08-02 01:51:00,
2013-08-01 20:56:00,68.3,54.3,29.83,SW,217,5.0,6.0,61,0.00,,,0.01,Wunderground v.1.15,2013-08-02 01:56:00,
2013-08-01 21:00:00,68.1,54.6,29.83,SW,221,5.0,5.0,62,0.00,,,0.01,Wunderground v.1.15,2013-08-02 02:00:00,
2013-08-01 21:01:00,68.1,54.6,29.83,SW,219,4.0,5.0,62,0.00,,,0.01,Wunderground v.1.15,2013-08-02 02:01:00,
2013-08-01 21:02:00,67.9,54.4,29.83,SW,216,5.0,5.0,62,0.00,,,0.01,Wunderground v.1.15,2013-08-02 02:02:00,
2013-08-01 21:05:00,67.9,54.4,29.83,SW,219,4.0,6.0,62,0.00,,,0.01,Wunderground v.1.15,2013-08-02 02:05:00,
2013-08-01 21:07:00,67.9,54.4,29.83,SW,221,3.0,6.0,62,0.00,,,0.01,Wunderground v.1.15,2013-08-02 02:07:00,
2013-08-01 21:08:00,67.8,54.3,29.83,SW,222,2.0,6.0,62,0.00,,,0.01,Wunderground v.1.15,2013-08-02 02:08:00,
2013-08-01 21:10:00,67.8,54.3,29.83,SW,222,5.0,5.0,62,0.00,,,0.01,Wunderground v.1.15,2013-08-02 02:10:00,
2013-08-01 21:11:00,67.6,54.1,29.83,SW,223,5.0,6.0,62,0.00,,,0.01,Wunderground v.1.15,2013-08-02 02:11:00,
2013-08-01 21:13:00,67.6,54.1,29.83,SW,225,4.0,6.0,62,0.00,,,0.01,Wunderground v.1.15,2013-08-02 02:13:00,
2013-08-01 21:16:00,67.6,54.1,29.83,SW,221,5.0,6.0,62,0.00,,,0.01,Wunderground v.1.15,2013-08-02 02:16:00,
2013-08-01 21:19:00,67.4,54.4,29.83,SW,221,3.0,4.0,63,0.00,,,0.01,Wunderground v.1.15,2013-08-02 02:19:00,
2013-08-01 21:21:00,67.3,54.3,29.83,SW,229,5.0,5.0,63,0.00,,,0.01,Wunderground v.1.15,2013-08-02 02:21:00,
2013-08-01 21:22:00,67.3,54.3,29.83,SW,226,5.0,5.0,63,0.00,,,0.01,Wunderground v.1.15,2013-08-02 02:22:00,
2013-08-01 21:25:00,67.3,54.3,29.83,SW,226,5.0,5.0,63,0.00,,,0.01,Wunderground v.1.15,2013-08-02 02:25:00,
2013-08-01 21:27:00,67.3,54.3,29.83,SW,226,5.0,5.0,63,0.00,,,0.01,Wunderground v.1.15,2013-08-02 02:27:00,
2013-08-01 21:30:00,67.3,54.3,29.83,SW,223,3.0,5.0,63,0.00,,,0.01,Wunderground v.1.15,2013-08-02 02:30:00,
2013-08-01 21:35:00,67.1,54.1,29.83,SW,216,6.0,6.0,63,0.00,,,0.01,Wunderground v.1.15,2013-08-02 02:35:00,
2013-08-01 21:36:00,67.1,54.1,29.83,SW,215,2.0,6.0,63,0.00,,,0.01,Wunderground v.1.15,2013-08-02 02:36:00,
2013-08-01 21:37:00,67.1,54.5,29.83,SW,219,5.0,6.0,64,0.00,,,0.01,Wunderground v.1.15,2013-08-02 02:37:00,
2013-08-01 21:40:00,66.9,54.3,29.83,SW,219,5.0,5.0,64,0.00,,,0.01,Wunderground v.1.15,2013-08-02 02:40:00,
2013-08-01 21:41:00,66.8,54.7,29.83,SW,222,3.0,5.0,65,0.00,,,0.01,Wunderground v.1.15,2013-08-02 02:41:00,
2013-08-01 21:42:00,66.8,54.7,29.83,SW,217,4.0,5.0,65,0.00,,,0.01,Wunderground v.1.15,2013-08-02 02:42:00,
2013-08-01 21:46:00,66.4,54.3,29.83,SW,231,3.0,6.0,65,0.00,,,0.01,Wunderground v.1.15,2013-08-02 02:46:00,
2013-08-01 21:47:00,66.4,54.3,29.83,SW,229,3.0,6.0,65,0.00,,,0.01,Wunderground v.1.15,2013-08-02 02:47:00,
2013-08-01 21:52:00,66.3,54.6,29.83,SW,232,3.0,4.0,66,0.00,,,0.01,Wunderground v.1.15,2013-08-02 02:52:00,
2013-08-01 21:56:00,66.0,54.7,29.84,SW,231,3.0,5.0,67,0.00,,,0.01,Wunderground v.1.15,2013-08-02 02:56:00,
2013-08-01 21:57:00,66.0,54.7,29.84,SW,231,2.0,5.0,67,0.00,,,0.01,Wunderground v.1.15,2013-08-02 02:57:00,
2013-08-01 22:00:00,65.8,54.9,29.84,SW,230,4.0,5.0,68,0.00,,,0.01,Wunderground v.1.15,2013-08-02 03:00:00,
2013-08-01 22:01:00,65.8,54.9,29.84,SW,230,5.0,5.0,68,0.00,,,0.01,Wunderground v.1.15,2013-08-02 03:01:00,
2013-08-01 22:02:00,65.6,54.8,29.84,SW,230,3.0,5.0,68,0.00,,,0.01,Wunderground v.1.15,2013-08-02 03:02:00,
2013-08-01 22:10:00,65.6,55.2,29.84,SW,224,4.0,4.0,69,0.00,,,0.01,Wunderground v.1.15,2013-08-02 03:10:00,
2013-08-01 22:12:00,65.6,55.2,29.83,SW,222,4.0,5.0,69,0.00,,,0.01,Wunderground v.1.15,2013-08-02 03:12:00,
2013-08-01 22:14:00,65.6,55.2,29.83,SW,221,4.0,5.0,69,0.00,,,0.01,Wunderground v.1.15,2013-08-02 03:14:00,
2013-08-01 22:16:00,65.8,55.3,29.83,SW,221,4.0,5.0,69,0.00,,,0.01,Wunderground v.1.15,2013-08-02 03:16:00,
2013-08-01 22:20:00,65.8,55.3,29.83,SW,221,5.0,5.0,69,0.00,,,0.01,Wunderground v.1.15,2013-08-02 03:20:00,
2013-08-01 22:21:00,65.8,54.9,29.83,SW,221,5.0,5.0,68,0.00,,,0.01,Wunderground v.1.15,2013-08-02 03:21:00,
2013-08-01 22:25:00,65.8,54.9,29.83,SW,220,5.0,6.0,68,0.00,,,0.01,Wunderground v.1.15,2013-08-02 03:25:00,
2013-08-01 22:30:00,66.0,55.1,29.83,SW,220,3.0,5.0,68,0.00,,,0.01,Wunderground v.1.15,2013-08-02 03:30:00,
2013-08-01 22:32:00,66.0,55.1,29.83,SW,220,3.0,5.0,68,0.00,,,0.01,Wunderground v.1.15,2013-08-02 03:32:00,
2013-08-01 22:34:00,66.0,55.1,29.83,SW,219,3.0,5.0,68,0.00,,,0.01,Wunderground v.1.15,2013-08-02 03:34:00,
2013-08-01 22:36:00,66.0,55.1,29.83,SW,219,4.0,5.0,68,0.00,,,0.01,Wunderground v.1.15,2013-08-02 03:36:00,
2013-08-01 22:37:00,66.0,55.1,29.83,SW,219,5.0,5.0,68,0.00,,,0.01,Wunderground v.1.15,2013-08-02 03:37:00,
2013-08-01 22:40:00,66.0,55.1,29.83,SW,219,4.0,4.0,68,0.00,,,0.01,Wunderground v.1.15,2013-08-02 03:40:00,
2013-08-01 22:42:00,65.8,54.9,29.83,SW,219,5.0,5.0,68,0.00,,,0.01,Wunderground v.1.15,2013-08-02 03:42:00,
2013-08-01 22:44:00,65.8,54.9,29.83,SW,219,4.0,5.0,68,0.00,,,0.01,Wunderground v.1.15,2013-08-02 03:44:00,
2013-08-01 22:50:00,65.5,55.1,29.83,SW,219,3.0,4.0,69,0.00,,,0.01,Wunderground v.1.15,2013-08-02 03:50:00,
2013-08-01 22:52:00,65.5,55.1,29.83,SW,219,6.0,6.0,69,0.00,,,0.01,Wunderground v.1.15,2013-08-02 03:52:00,
2013-08-01 22:55:00,65.5,55.5,29.83,SW,219,4.0,6.0,70,0.00,,,0.01,Wunderground v.1.15,2013-08-02 03:55:00,
2013-08-01 22:56:00,65.3,55.3,29.83,SW,219,4.0,6.0,70,0.00,,,0.01,Wunderground v.1.15,2013-08-02 03:56:00,
2013-08-01 23:00:00,65.3,55.3,29.83,SW,218,4.0,4.0,70,0.00,,,0.01,Wunderground v.1.15,2013-08-02 04:00:00,
2013-08-01 23:01:00,65.3,55.3,29.83,SW,218,4.0,4.0,70,0.00,,,0.01,Wunderground v.1.15,2013-08-02 04:01:00,
2013-08-01 23:02:00,65.3,55.3,29.83,SW,218,4.0,4.0,70,0.00,,,0.01,Wunderground v.1.15,2013-08-02 04:02:00,
2013-08-01 23:06:00,65.2,55.2,29.83,SW,218,3.0,5.0,70,0.00,,,0.01,Wunderground v.1.15,2013-08-02 04:06:00,
2013-08-01 23:07:00,65.2,55.2,29.83,SW,218,3.0,5.0,70,0.00,,,0.01,Wunderground v.1.15,2013-08-02 04:07:00,
2013-08-01 23:08:00,65.2,55.2,29.83,SW,218,3.0,5.0,70,0.00,,,0.01,Wunderground v.1.15,2013-08-02 04:08:00,
2013-08-01 23:12:00,65.2,55.2,29.82,SW,218,4.0,4.0,70,0.00,,,0.00,Wunderground v.1.15,2013-08-02 04:12:00,
2013-08-01 23:15:00,65.2,55.2,29.82,SW,218,3.0,4.0,70,0.00,,,0.00,Wunderground v.1.15,2013-08-02 04:15:00,
2013-08-01 23:16:00,65.2,55.2,29.82,SW,218,4.0,4.0,70,0.00,,,0.00,Wunderground v.1.15,2013-08-02 04:16:00,
2013-08-01 23:20:00,64.8,55.2,29.82,SW,218,4.0,4.0,71,0.00,,,0.00,Wunderground v.1.15,2013-08-02 04:20:00,
2013-08-01 23:22:00,64.8,55.2,29.82,SW,218,4.0,5.0,71,0.00,,,0.00,Wunderground v.1.15,2013-08-02 04:22:00,
2013-08-01 23:23:00,64.8,55.2,29.82,SW,218,4.0,5.0,71,0.00,,,0.00,Wunderground v.1.15,2013-08-02 04:23:00,
2013-08-01 23:25:00,64.8,55.6,29.82,SW,218,5.0,5.0,72,0.00,,,0.00,Wunderground v.1.15,2013-08-02 04:25:00,
2013-08-01 23:26:00,64.8,55.6,29.82,SW,218,5.0,5.0,72,0.00,,,0.00,Wunderground v.1.15,2013-08-02 04:26:00,
2013-08-01 23:27:00,64.8,55.6,29.82,SW,218,6.0,6.0,72,0.00,,,0.00,Wunderground v.1.15,2013-08-02 04:27:00,
2013-08-01 23:30:00,64.7,55.5,29.82,SW,218,4.0,5.0,72,0.00,,,0.00,Wunderground v.1.15,2013-08-02 04:30:00,
2013-08-01 23:31:00,64.7,55.5,29.82,SW,218,4.0,5.0,72,0.00,,,0.00,Wunderground v.1.15,2013-08-02 04:31:00,
2013-08-01 23:36:00,64.7,55.5,29.82,SW,217,4.0,5.0,72,0.00,,,0.00,Wunderground v.1.15,2013-08-02 04:36:00,
2013-08-01 23:37:00,64.7,55.5,29.82,SW,217,4.0,5.0,72,0.00,,,0.00,Wunderground v.1.15,2013-08-02 04:37:00,
2013-08-01 23:39:00,64.7,55.5,29.82,SW,217,5.0,5.0,72,0.00,,,0.00,Wunderground v.1.15,2013-08-02 04:39:00,
2013-08-01 23:40:00,64.7,55.5,29.82,SW,217,4.0,5.0,72,0.00,,,0.00,Wunderground v.1.15,2013-08-02 04:40:00,
2013-08-01 23:44:00,64.5,55.3,29.82,SW,217,4.0,6.0,72,0.00,,,0.00,Wunderground v.1.15,2013-08-02 04:44:00,
2013-08-01 23:45:00,64.3,55.1,29.82,SW,217,4.0,6.0,72,0.00,,,0.00,Wunderground v.1.15,2013-08-02 04:45:00,
2013-08-01 23:46:00,64.3,55.5,29.82,SW,217,4.0,6.0,73,0.00,,,0.00,Wunderground v.1.15,2013-08-02 04:46:00,
2013-08-01 23:50:00,64.3,55.5,29.82,SW,214,5.0,5.0,73,0.00,,,0.00,Wunderground v.1.15,2013-08-02 04:50:00,
2013-08-01 23:51:00,64.3,55.5,29.82,SW,214,4.0,5.0,73,0.00,,,0.00,Wunderground v.1.15,2013-08-02 04:51:00,
2013-08-01 23:52:00,64.2,55.4,29.82,SW,214,4.0,5.0,73,0.00,,,0.00,Wunderground v.1.15,2013-08-02 04:52:00,
2013-08-01 23:55:00,64.2,55.7,29.82,SSW,213,3.0,5.0,74,0.00,,,0.00,Wunderground v.1.15,2013-08-02 04:55:00,
2013-08-01 23:56:00,64.2,55.7,29.82,SSW,213,4.0,5.0,74,0.00,,,0.00,Wunderground v.1.15,2013-08-02 04:56:00,
2013-08-01 23:57:00,64.2,55.7,29.82,SSW,213,4.0,5.0,74,0.00,,,0.00,Wunderground v.1.15,2013-08-02 04:57:00,